Time,TemperatureF,DewpointF,PressureIn,WindDirection,WindDirectionDegrees,WindSpeedMPH,WindSpeedGustMPH,Humidity,HourlyPrecipIn,Conditions,Clouds,dailyrainin,SoftwareType,DateUTC
2013-06-02 00:00:00,68.3,68.3,29.71,South,182,0.0,0.0,100,0.00,RA,OVC,0.00,WeatherDisplay:10.37,2013-06-02 04:00:00,
2013-06-02 00:05:00,68.3,68.3,29.71,South,190,0.0,0.0,100,0.00,RA,OVC,0.00,WeatherDisplay:10.37,2013-06-02 04:05:00,
2013-06-02 00:10:00,68.3,68.3,29.71,SSW,212,0.0,3.0,100,0.00,OVC,OVC,0.00,WeatherDisplay:10.37,2013-06-02 04:10:00,
2013-06-02 00:15:00,68.3,68.3,29.70,SW,223,0.0,1.0,100,0.00,OVC,OVC,0.00,WeatherDisplay:10.37,2013-06-02 04:15:00,
2013-06-02 00:20:00,68.2,68.2,29.70,SW,230,1.0,4.0,100,0.00,OVC,OVC,0.00,WeatherDisplay:10.37,2013-06-02 04:20:00,
2013-06-02 00:25:00,68.2,68.2,29.71,SSW,204,0.0,3.0,100,0.00,OVC,OVC,0.00,WeatherDisplay:10.37,2013-06-02 04:25:00,
2013-06-02 00:30:00,68.3,68.3,29.71,SW,214,0.0,5.0,100,0.00,OVC,OVC,0.00,WeatherDisplay:10.37,2013-06-02 04:30:00,
2013-06-02 00:35:00,68.3,68.3,29.70,WSW,245,1.0,4.0,100,0.00,OVC,OVC,0.00,WeatherDisplay:10.37,2013-06-02 04:35:00,
2013-06-02 00:40:00,68.4,68.4,29.70,WSW,256,0.0,2.0,100,0.00,OVC,OVC,0.00,WeatherDisplay:10.37,2013-06-02 04:40:00,
2013-06-02 00:45:00,68.5,68.5,29.70,WSW,249,0.0,1.0,100,0.00,OVC,OVC,0.00,WeatherDisplay:10.37,2013-06-02 04:45:00,
2013-06-02 00:50:00,68.5,68.5,29.70,WSW,244,0.0,2.0,100,0.00,OVC,OVC,0.00,WeatherDisplay:10.37,2013-06-02 04:50:00,
2013-06-02 00:55:00,68.5,68.5,29.70,SW,228,0.0,3.0,100,0.00,OVC,OVC,0.00,WeatherDisplay:10.37,2013-06-02 04:55:00,
2013-06-02 01:00:00,68.5,68.5,29.70,SW,228,0.0,4.0,100,0.00,OVC,OVC,0.00,WeatherDisplay:10.37,2013-06-02 05:00:00,
2013-06-02 01:05:00,68.5,68.5,29.69,WSW,239,0.0,1.0,100,0.00,OVC,OVC,0.00,WeatherDisplay:10.37,2013-06-02 05:05:00,
2013-06-02 01:10:00,68.5,68.5,29.69,SW,231,0.0,2.0,100,0.00,OVC,OVC,0.00,WeatherDisplay:10.37,2013-06-02 05:10:00,
2013-06-02 01:15:00,68.5,68.5,29.69,SW,217,1.0,6.0,100,0.00,OVC,OVC,0.00,WeatherDisplay:10.37,2013-06-02 05:15:00,
2013-06-02 01:20:00,68.5,68.5,29.69,SW,231,0.0,2.0,100,0.00,OVC,OVC,0.00,WeatherDisplay:10.37,2013-06-02 05:20:00,
2013-06-02 01:25:00,68.5,68.5,29.69,SW,225,0.0,1.0,100,0.00,OVC,OVC,0.00,WeatherDisplay:10.37,2013-06-02 05:25:00,
2013-06-02 01:30:00,68.4,68.4,29.69,SW,233,0.0,4.0,100,0.00,OVC,OVC,0.00,WeatherDisplay:10.37,2013-06-02 05:30:00,
2013-06-02 01:35:00,68.4,68.4,29.69,WSW,238,0.0,4.0,100,0.00,OVC,OVC,0.00,WeatherDisplay:10.37,2013-06-02 05:35:00,
2013-06-02 01:40:00,68.4,68.4,29.69,WSW,255,1.0,4.0,100,0.00,OVC,OVC,0.00,WeatherDisplay:10.37,2013-06-02 05:40:00,
2013-06-02 01:45:00,68.4,68.4,29.69,WSW,245,0.0,3.0,100,0.00,OVC,OVC,0.00,WeatherDisplay:10.37,2013-06-02 05:45:00,
2013-06-02 01:50:00,68.4,68.4,29.69,WSW,245,0.0,3.0,100,0.00,OVC,OVC,0.00,WeatherDisplay:10.37,2013-06-02 05:50:00,
2013-06-02 01:55:00,68.3,68.3,29.69,WSW,247,0.0,3.0,100,0.00,OVC,OVC,0.00,WeatherDisplay:10.37,2013-06-02 05:55:00,
2013-06-02 02:00:00,68.3,68.3,29.69,West,262,0.0,4.0,100,0.00,OVC,OVC,0.00,WeatherDisplay:10.37,2013-06-02 06:00:00,
2013-06-02 02:05:00,68.2,68.2,29.69,West,260,0.0,3.0,100,0.00,OVC,OVC,0.00,WeatherDisplay:10.37,2013-06-02 06:05:00,
2013-06-02 02:10:00,68.2,68.2,29.69,West,261,0.0,2.0,100,0.00,OVC,OVC,0.00,WeatherDisplay:10.37,2013-06-02 06:10:00,
2013-06-02 02:15:00,68.1,68.1,29.69,WSW,238,0.0,3.0,100,0.00,OVC,OVC,0.00,WeatherDisplay:10.37,2013-06-02 06:15:00,
2013-06-02 02:20:00,68.0,68.0,29.69,SW,218,0.0,4.0,100,0.00,OVC,OVC,0.00,WeatherDisplay:10.37,2013-06-02 06:20:00,
2013-06-02 02:25:00,67.9,67.9,29.69,SW,229,0.0,0.0,100,0.00,OVC,OVC,0.00,WeatherDisplay:10.37,2013-06-02 06:25:00,
2013-06-02 02:30:00,67.9,67.9,29.69,SW,234,0.0,3.0,100,0.00,OVC,OVC,0.00,WeatherDisplay:10.37,2013-06-02 06:30:00,
2013-06-02 02:35:00,67.9,67.9,29.69,SW,231,0.0,2.0,100,0.00,OVC,OVC,0.00,WeatherDisplay:10.37,2013-06-02 06:35:00,
2013-06-02 02:40:00,67.9,67.9,29.68,WNW,291,0.0,2.0,100,0.00,OVC,OVC,0.00,WeatherDisplay:10.37,2013-06-02 06:40:00,
2013-06-02 02:45:00,68.0,68.0,29.69,West,280,0.0,5.0,100,0.00,OVC,OVC,0.00,WeatherDisplay:10.37,2013-06-02 06:45:00,
2013-06-02 02:50:00,67.9,67.9,29.68,West,271,0.0,0.0,100,0.00,OVC,OVC,0.00,WeatherDisplay:10.37,2013-06-02 06:50:00,
2013-06-02 02:55:00,67.8,67.8,29.69,WNW,284,0.0,0.0,100,0.00,OVC,OVC,0.00,WeatherDisplay:10.37,2013-06-02 06:55:00,
2013-06-02 03:00:00,67.8,67.8,29.69,West,277,1.0,5.0,100,0.00,OVC,OVC,0.00,WeatherDisplay:10.37,2013-06-02 07:00:00,
2013-06-02 03:05:00,68.0,68.0,29.69,WSW,257,0.0,2.0,100,0.00,OVC,OVC,0.00,WeatherDisplay:10.37,2013-06-02 07:05:00,
2013-06-02 03:10:00,68.1,68.1,29.69,SW,220,0.0,3.0,100,0.00,OVC,OVC,0.00,WeatherDisplay:10.37,2013-06-02 07:10:00,
2013-06-02 03:15:00,68.0,68.0,29.69,SW,224,0.0,1.0,100,0.00,OVC,OVC,0.00,WeatherDisplay:10.37,2013-06-02 07:15:00,
2013-06-02 03:20:00,68.0,68.0,29.69,SW,227,0.0,2.0,100,0.00,OVC,OVC,0.00,WeatherDisplay:10.37,2013-06-02 07:20:00,
2013-06-02 03:25:00,68.1,68.1,29.69,SW,226,0.0,3.0,100,0.00,OVC,OVC,0.00,WeatherDisplay:10.37,2013-06-02 07:25:00,
2013-06-02 03:30:00,68.1,68.1,29.69,SW,219,0.0,2.0,100,0.00,OVC,OVC,0.00,WeatherDisplay:10.37,2013-06-02 07:30:00,
2013-06-02 03:35:00,68.1,68.1,29.69,SW,217,0.0,3.0,100,0.00,OVC,OVC,0.00,WeatherDisplay:10.37,2013-06-02 07:35:00,
2013-06-02 03:40:00,68.0,68.0,29.68,SW,214,0.0,0.0,100,0.00,OVC,OVC,0.00,WeatherDisplay:10.37,2013-06-02 07:40:00,
2013-06-02 03:45:00,68.0,68.0,29.69,SSW,211,0.0,0.0,100,0.00,OVC,OVC,0.00,WeatherDisplay:10.37,2013-06-02 07:45:00,
2013-06-02 03:50:00,68.0,68.0,29.69,SW,231,0.0,2.0,100,0.00,OVC,OVC,0.00,WeatherDisplay:10.37,2013-06-02 07:50:00,
2013-06-02 03:55:00,67.9,67.9,29.68,WSW,257,0.0,0.0,100,0.00,OVC,OVC,0.00,WeatherDisplay:10.37,2013-06-02 07:55:00,
2013-06-02 04:00:00,67.9,67.9,29.68,WSW,252,0.0,1.0,100,0.00,OVC,OVC,0.00,WeatherDisplay:10.37,2013-06-02 08:00:00,
2013-06-02 04:05:00,67.8,67.8,29.68,SW,230,0.0,1.0,100,0.00,OVC,OVC,0.00,WeatherDisplay:10.37,2013-06-02 08:05:00,
2013-06-02 04:10:00,67.8,67.8,29.68,SW,234,2.0,6.0,100,0.00,OVC,OVC,0.00,WeatherDisplay:10.37,2013-06-02 08:10:00,
2013-06-02 04:15:00,67.7,67.7,29.68,WSW,246,0.0,4.0,100,0.00,OVC,OVC,0.00,WeatherDisplay:10.37,2013-06-02 08:15:00,
2013-06-02 04:20:00,67.8,67.8,29.68,WSW,238,0.0,2.0,100,0.00,OVC,OVC,0.00,WeatherDisplay:10.37,2013-06-02 08:20:00,
2013-06-02 04:25:00,67.8,67.8,29.68,WSW,246,0.0,1.0,100,0.00,OVC,OVC,0.00,WeatherDisplay:10.37,2013-06-02 08:25:00,
2013-06-02 04:30:00,67.8,67.8,29.67,WSW,249,0.0,4.0,100,0.00,OVC,OVC,0.00,WeatherDisplay:10.37,2013-06-02 08:30:00,
2013-06-02 04:35:00,67.8,67.8,29.68,SW,233,0.0,2.0,100,0.00,OVC,OVC,0.00,WeatherDisplay:10.37,2013-06-02 08:35:00,
2013-06-02 04:40:00,67.8,67.8,29.68,SW,227,0.0,5.0,100,0.00,OVC,OVC,0.00,WeatherDisplay:10.37,2013-06-02 08:40:00,
2013-06-02 04:45:00,67.8,67.8,29.68,SW,231,0.0,2.0,100,0.00,OVC,OVC,0.00,WeatherDisplay:10.37,2013-06-02 08:45:00,
2013-06-02 04:50:00,67.8,67.8,29.67,SW,233,0.0,2.0,100,0.00,OVC,OVC,0.00,WeatherDisplay:10.37,2013-06-02 08:50:00,
2013-06-02 04:55:00,67.7,67.7,29.67,South,191,0.0,5.0,100,0.00,OVC,OVC,0.00,WeatherDisplay:10.37,2013-06-02 08:55:00,
2013-06-02 05:00:00,67.7,67.7,29.67,SSE,165,0.0,0.0,100,0.00,OVC,OVC,0.00,WeatherDisplay:10.37,2013-06-02 09:00:00,
2013-06-02 05:05:00,67.7,67.7,29.68,South,184,0.0,3.0,100,0.00,OVC,OVC,0.00,WeatherDisplay:10.37,2013-06-02 09:05:00,
2013-06-02 05:10:00,67.6,67.6,29.68,SW,218,0.0,1.0,100,0.00,OVC,OVC,0.00,WeatherDisplay:10.37,2013-06-02 09:10:00,
2013-06-02 05:15:00,67.6,67.6,29.68,SW,219,0.0,0.0,100,0.00,OVC,OVC,0.00,WeatherDisplay:10.37,2013-06-02 09:15:00,
2013-06-02 05:20:00,67.6,67.6,29.68,SSE,161,0.0,0.0,100,0.00,OVC,OVC,0.00,WeatherDisplay:10.37,2013-06-02 09:20:00,
2013-06-02 05:25:00,67.6,67.6,29.68,SE,140,1.0,9.0,100,0.00,OVC,OVC,0.00,WeatherDisplay:10.37,2013-06-02 09:25:00,
2013-06-02 05:30:00,67.6,67.6,29.68,SE,133,0.0,0.0,100,0.00,OVC,OVC,0.00,WeatherDisplay:10.37,2013-06-02 09:30:00,
2013-06-02 05:35:00,67.6,67.6,29.68,SSW,192,0.0,1.0,100,0.00,OVC,OVC,0.00,WeatherDisplay:10.37,2013-06-02 09:35:00,
2013-06-02 05:40:00,67.5,67.5,29.67,SSW,192,0.0,0.0,100,0.00,OVC,OVC,0.00,WeatherDisplay:10.37,2013-06-02 09:40:00,
2013-06-02 05:45:00,67.5,67.5,29.67,ENE,70,0.0,0.0,100,0.00,-RA,OVC,0.00,WeatherDisplay:10.37,2013-06-02 09:45:00,
2013-06-02 05:50:00,67.4,67.4,29.67,East,84,0.0,0.0,100,0.01,-RA,OVC,0.01,WeatherDisplay:10.37,2013-06-02 09:50:00,
2013-06-02 05:55:00,67.4,67.4,29.67,East,92,0.0,2.0,100,0.00,-RA,OVC,0.01,WeatherDisplay:10.37,2013-06-02 09:55:00,
2013-06-02 06:00:00,67.3,67.3,29.67,ESE,122,0.0,1.0,100,0.00,-RA,OVC,0.01,WeatherDisplay:10.37,2013-06-02 10:00:00,
2013-06-02 06:05:00,67.2,67.2,29.67,SE,124,0.0,0.0,100,0.00,-RA,OVC,0.01,WeatherDisplay:10.37,2013-06-02 10:05:00,
2013-06-02 06:10:00,67.1,67.1,29.67,ESE,120,0.0,0.0,100,0.00,-RA,OVC,0.01,WeatherDisplay:10.37,2013-06-02 10:10:00,
2013-06-02 06:15:00,67.0,67.0,29.67,WNW,283,0.0,1.0,100,0.00,-RA,OVC,0.01,WeatherDisplay:10.37,2013-06-02 10:15:00,
2013-06-02 06:20:00,67.0,67.0,29.67,SW,229,0.0,0.0,100,0.00,-RA,OVC,0.01,WeatherDisplay:10.37,2013-06-02 10:20:00,
2013-06-02 06:25:00,66.9,66.9,29.67,South,171,0.0,0.0,100,0.00,-RA,OVC,0.01,WeatherDisplay:10.37,2013-06-02 10:25:00,
2013-06-02 06:30:00,66.8,66.8,29.67,SSE,147,0.0,0.0,100,0.00,-RA,OVC,0.01,WeatherDisplay:10.37,2013-06-02 10:30:00,
2013-06-02 06:35:00,66.7,66.7,29.67,East,85,0.0,2.0,100,0.00,-RA,OVC,0.01,WeatherDisplay:10.37,2013-06-02 10:35:00,
2013-06-02 06:45:00,66.6,66.6,29.67,South,180,0.0,7.0,100,0.00,-RA,OVC,0.01,WeatherDisplay:10.37,2013-06-02 10:45:00,
2013-06-02 06:50:00,66.5,66.5,29.67,South,188,0.0,3.0,100,0.00,-RA,OVC,0.01,WeatherDisplay:10.37,2013-06-02 10:50:00,
2013-06-02 06:55:00,66.5,66.5,29.67,SSW,209,0.0,3.0,100,0.01,-RA,OVC,0.02,WeatherDisplay:10.37,2013-06-02 10:55:00,
2013-06-02 07:00:00,66.5,66.5,29.67,SSW,196,0.0,1.0,100,0.00,-RA,OVC,0.02,WeatherDisplay:10.37,2013-06-02 11:00:00,
2013-06-02 07:05:00,66.5,66.5,29.67,SSW,206,0.0,0.0,100,0.00,-RA,OVC,0.02,WeatherDisplay:10.37,2013-06-02 11:05:00,
2013-06-02 07:10:00,66.5,66.5,29.67,SW,232,0.0,0.0,100,0.00,-RA,OVC,0.02,WeatherDisplay:10.37,2013-06-02 11:10:00,
2013-06-02 07:15:00,66.4,66.4,29.66,WSW,244,0.0,2.0,100,0.00,-RA,OVC,0.02,WeatherDisplay:10.37,2013-06-02 11:15:00,
2013-06-02 07:20:00,66.4,66.4,29.66,SW,217,0.0,1.0,100,0.00,-RA,OVC,0.02,WeatherDisplay:10.37,2013-06-02 11:20:00,
2013-06-02 07:25:00,66.4,66.4,29.66,SW,217,0.0,0.0,100,0.00,-RA,OVC,0.02,WeatherDisplay:10.37,2013-06-02 11:25:00,
2013-06-02 07:30:00,66.4,66.4,29.67,SW,218,0.0,2.0,100,0.00,-RA,OVC,0.02,WeatherDisplay:10.37,2013-06-02 11:30:00,
2013-06-02 07:35:00,66.5,66.5,29.67,SW,220,0.0,2.0,100,0.00,-RA,OVC,0.02,WeatherDisplay:10.37,2013-06-02 11:35:00,
2013-06-02 07:40:00,66.5,66.5,29.67,SW,220,0.0,2.0,100,0.00,-RA,OVC,0.02,WeatherDisplay:10.37,2013-06-02 11:40:00,
2013-06-02 07:45:00,66.5,66.5,29.67,SW,227,0.0,3.0,100,0.00,-RA,OVC,0.02,WeatherDisplay:10.37,2013-06-02 11:45:00,
2013-06-02 07:50:00,66.5,66.5,29.67,SW,223,0.0,0.0,100,0.00,-RA,OVC,0.02,WeatherDisplay:10.37,2013-06-02 11:50:00,
2013-06-02 07:55:00,66.5,66.5,29.66,SW,220,0.0,0.0,100,0.01,-RA,OVC,0.02,WeatherDisplay:10.37,2013-06-02 11:55:00,
2013-06-02 08:05:00,66.5,66.5,29.67,SW,221,0.0,0.0,100,0.00,-RA,OVC,0.02,WeatherDisplay:10.37,2013-06-02 12:05:00,
2013-06-02 08:10:00,66.5,66.5,29.66,SSW,200,0.0,1.0,100,0.01,-RA,OVC,0.03,WeatherDisplay:10.37,2013-06-02 12:10:00,
2013-06-02 08:15:00,66.6,66.6,29.66,East,80,0.0,0.0,100,0.01,RA,OVC,0.04,WeatherDisplay:10.37,2013-06-02 12:15:00,
2013-06-02 08:20:00,66.6,66.6,29.65,East,80,0.0,0.0,100,0.00,RA,OVC,0.04,WeatherDisplay:10.37,2013-06-02 12:20:00,
2013-06-02 08:25:00,66.5,66.5,29.64,East,80,0.0,1.0,100,0.01,RA,OVC,0.05,WeatherDisplay:10.37,2013-06-02 12:25:00,
2013-06-02 08:30:00,66.5,66.5,29.64,East,80,0.0,0.0,100,0.01,RA,OVC,0.05,WeatherDisplay:10.37,2013-06-02 12:30:00,
2013-06-02 08:35:00,66.7,66.7,29.65,East,80,0.0,0.0,100,0.00,RA,OVC,0.05,WeatherDisplay:10.37,2013-06-02 12:35:00,
2013-06-02 08:40:00,66.9,66.9,29.65,East,80,0.0,0.0,100,0.01,RA,OVC,0.06,WeatherDisplay:10.37,2013-06-02 12:40:00,
2013-06-02 08:45:00,66.7,66.7,29.63,East,80,0.0,0.0,100,0.00,RA,OVC,0.06,WeatherDisplay:10.37,2013-06-02 12:45:00,
2013-06-02 08:50:00,66.8,66.8,29.63,East,80,0.0,1.0,100,0.01,RA,OVC,0.07,WeatherDisplay:10.37,2013-06-02 12:50:00,
2013-06-02 09:00:00,66.6,66.6,29.65,East,85,0.0,1.0,100,0.01,RA,OVC,0.08,WeatherDisplay:10.37,2013-06-02 13:00:00,
2013-06-02 09:05:00,66.6,66.6,29.65,West,269,0.0,0.0,100,0.00,RA,OVC,0.08,WeatherDisplay:10.37,2013-06-02 13:05:00,
2013-06-02 09:15:00,66.5,66.5,29.64,WNW,289,0.0,2.0,100,0.00,RA,OVC,0.09,WeatherDisplay:10.37,2013-06-02 13:15:00,
2013-06-02 09:20:00,66.4,66.4,29.64,NW,309,0.0,2.0,100,0.01,RA,OVC,0.09,WeatherDisplay:10.37,2013-06-02 13:20:00,
2013-06-02 09:25:00,66.5,66.5,29.62,WSW,251,0.0,0.0,100,0.00,RA,OVC,0.09,WeatherDisplay:10.37,2013-06-02 13:25:00,
2013-06-02 09:30:00,66.4,66.4,29.63,WSW,255,0.0,0.0,100,0.01,RA,OVC,0.10,WeatherDisplay:10.37,2013-06-02 13:30:00,
2013-06-02 09:35:00,66.3,66.3,29.62,West,263,0.0,0.0,100,0.00,RA,OVC,0.10,WeatherDisplay:10.37,2013-06-02 13:35:00,
2013-06-02 09:40:00,66.3,66.3,29.62,West,267,0.0,0.0,100,0.01,RA,OVC,0.11,WeatherDisplay:10.37,2013-06-02 13:40:00,
2013-06-02 09:45:00,66.5,66.5,29.61,West,267,0.0,0.0,100,0.00,RA,OVC,0.11,WeatherDisplay:10.37,2013-06-02 13:45:00,
2013-06-02 09:50:00,66.4,66.4,29.60,NW,306,0.0,0.0,100,0.01,RA,OVC,0.12,WeatherDisplay:10.37,2013-06-02 13:50:00,
2013-06-02 09:55:00,66.6,66.6,29.59,North,350,0.0,0.0,100,0.00,RA,OVC,0.12,WeatherDisplay:10.37,2013-06-02 13:55:00,
2013-06-02 10:05:00,66.5,66.5,29.60,East,86,0.0,0.0,100,0.00,RA,OVC,0.13,WeatherDisplay:10.37,2013-06-02 14:05:00,
2013-06-02 10:10:00,66.5,66.5,29.60,East,86,0.0,0.0,100,0.01,RA,OVC,0.13,WeatherDisplay:10.37,2013-06-02 14:10:00,
2013-06-02 10:20:00,66.7,66.7,29.61,East,86,0.0,0.0,100,0.01,-RA,OVC,0.14,WeatherDisplay:10.37,2013-06-02 14:20:00,
2013-06-02 10:25:00,67.3,67.3,29.61,East,86,0.0,0.0,100,0.00,-RA,OVC,0.14,WeatherDisplay:10.37,2013-06-02 14:25:00,
2013-06-02 10:30:00,67.8,67.8,29.61,East,94,0.0,0.0,100,0.00,-RA,OVC,0.14,WeatherDisplay:10.37,2013-06-02 14:30:00,
2013-06-02 10:35:00,68.1,68.1,29.60,East,100,0.0,1.0,100,0.01,RA,OVC,0.15,WeatherDisplay:10.37,2013-06-02 14:35:00,
2013-06-02 10:40:00,68.4,68.1,29.61,South,175,0.0,1.0,99,0.00,RA,OVC,0.15,WeatherDisplay:10.37,2013-06-02 14:40:00,
2013-06-02 10:45:00,68.8,68.2,29.61,SSW,192,0.0,0.0,98,0.00,BKN,OVC,0.15,WeatherDisplay:10.37,2013-06-02 14:45:00,
2013-06-02 10:50:00,68.9,68.3,29.62,SSE,168,0.0,3.0,98,0.00,BKN,OVC,0.15,WeatherDisplay:10.37,2013-06-02 14:50:00,
2013-06-02 10:55:00,68.7,67.2,29.62,SE,143,0.0,2.0,95,0.00,BKN,OVC,0.15,WeatherDisplay:10.37,2013-06-02 14:55:00,
2013-06-02 11:00:00,69.5,68.3,29.62,ESE,110,0.0,0.0,96,0.00,BKN,OVC,0.15,WeatherDisplay:10.37,2013-06-02 15:00:00,
2013-06-02 11:05:00,69.2,67.4,29.62,East,82,0.0,1.0,94,0.00,BKN,OVC,0.15,WeatherDisplay:10.37,2013-06-02 15:05:00,
2013-06-02 11:10:00,68.9,67.4,29.62,NNW,339,0.0,1.0,95,0.00,BKN,OVC,0.15,WeatherDisplay:10.37,2013-06-02 15:10:00,
2013-06-02 11:15:00,68.9,67.4,29.63,NW,307,0.0,0.0,95,0.00,OVC,OVC,0.15,WeatherDisplay:10.37,2013-06-02 15:15:00,
2013-06-02 11:20:00,68.9,67.7,29.63,NW,306,0.0,1.0,96,0.00,OVC,OVC,0.15,WeatherDisplay:10.37,2013-06-02 15:20:00,
2013-06-02 11:25:00,69.1,67.7,29.63,West,266,0.0,1.0,95,0.00,OVC,OVC,0.15,WeatherDisplay:10.37,2013-06-02 15:25:00,
2013-06-02 11:30:00,69.3,67.8,29.63,SW,221,0.0,4.0,95,0.00,OVC,OVC,0.15,WeatherDisplay:10.37,2013-06-02 15:30:00,
2013-06-02 11:35:00,69.5,68.0,29.63,SW,231,0.0,6.0,95,0.00,OVC,OVC,0.15,WeatherDisplay:10.37,2013-06-02 15:35:00,
2013-06-02 11:40:00,69.6,67.8,29.63,SSW,213,0.0,3.0,94,0.00,OVC,OVC,0.15,WeatherDisplay:10.37,2013-06-02 15:40:00,
2013-06-02 11:45:00,69.3,67.5,29.62,SE,127,1.0,8.0,94,0.00,OVC,OVC,0.15,WeatherDisplay:10.37,2013-06-02 15:45:00,
2013-06-02 11:50:00,69.5,67.7,29.62,ESE,116,0.0,4.0,94,0.00,OVC,OVC,0.15,WeatherDisplay:10.37,2013-06-02 15:50:00,
2013-06-02 11:55:00,70.3,68.2,29.62,SW,228,0.0,3.0,93,0.00,OVC,OVC,0.15,WeatherDisplay:10.37,2013-06-02 15:55:00,
2013-06-02 12:00:00,70.8,68.4,29.62,SW,232,1.0,7.0,92,0.00,OVC,OVC,0.15,WeatherDisplay:10.37,2013-06-02 16:00:00,
2013-06-02 12:05:00,71.5,69.0,29.61,SW,220,1.0,8.0,92,0.00,OVC,OVC,0.15,WeatherDisplay:10.37,2013-06-02 16:05:00,
2013-06-02 12:10:00,71.0,68.6,29.61,SW,214,0.0,1.0,92,0.00,OVC,OVC,0.15,WeatherDisplay:10.37,2013-06-02 16:10:00,
2013-06-02 12:15:00,70.4,68.0,29.61,SW,222,0.0,3.0,92,0.00,BKN,OVC,0.15,WeatherDisplay:10.37,2013-06-02 16:15:00,
2013-06-02 12:20:00,70.4,68.3,29.61,WSW,240,0.0,0.0,93,0.00,BKN,OVC,0.15,WeatherDisplay:10.37,2013-06-02 16:20:00,
2013-06-02 12:25:00,70.7,68.3,29.61,West,271,0.0,2.0,92,0.00,BKN,OVC,0.15,WeatherDisplay:10.37,2013-06-02 16:25:00,
2013-06-02 12:30:00,71.8,69.1,29.61,WSW,243,0.0,2.0,91,0.00,BKN,OVC,0.15,WeatherDisplay:10.37,2013-06-02 16:30:00,
2013-06-02 12:35:00,73.8,70.4,29.61,WSW,242,1.0,5.0,89,0.00,BKN,OVC,0.15,WeatherDisplay:10.37,2013-06-02 16:35:00,
2013-06-02 12:40:00,73.9,70.1,29.60,WSW,240,0.0,3.0,88,0.00,BKN,OVC,0.15,WeatherDisplay:10.37,2013-06-02 16:40:00,
2013-06-02 12:45:00,73.1,69.3,29.61,SW,220,1.0,5.0,88,0.00,BKN,OVC,0.15,WeatherDisplay:10.37,2013-06-02 16:45:00,
2013-06-02 12:50:00,72.4,69.0,29.60,SSW,205,0.0,4.0,89,0.00,BKN,OVC,0.15,WeatherDisplay:10.37,2013-06-02 16:50:00,
2013-06-02 12:55:00,72.1,68.7,29.60,South,185,0.0,2.0,89,0.00,BKN,OVC,0.15,WeatherDisplay:10.37,2013-06-02 16:55:00,
2013-06-02 13:00:00,71.7,68.7,29.61,ESE,119,1.0,4.0,90,0.00,BKN,OVC,0.16,WeatherDisplay:10.37,2013-06-02 17:00:00,
2013-06-02 13:05:00,71.2,68.5,29.61,East,88,0.0,5.0,91,0.01,RA,OVC,0.16,WeatherDisplay:10.37,2013-06-02 17:05:00,
2013-06-02 13:10:00,71.9,69.1,29.61,SE,129,0.0,6.0,91,0.00,RA,OVC,0.16,WeatherDisplay:10.37,2013-06-02 17:10:00,
2013-06-02 13:15:00,72.7,69.3,29.60,SSW,192,1.0,5.0,89,0.00,BKN,OVC,0.16,WeatherDisplay:10.37,2013-06-02 17:15:00,
2013-06-02 13:20:00,73.3,69.6,29.59,SW,236,1.0,7.0,88,0.00,BKN,OVC,0.16,WeatherDisplay:10.37,2013-06-02 17:20:00,
2013-06-02 13:25:00,75.0,70.5,29.60,WSW,258,2.0,7.0,86,0.00,BKN,OVC,0.16,WeatherDisplay:10.37,2013-06-02 17:25:00,
2013-06-02 13:30:00,75.8,70.3,29.60,SW,229,1.0,9.0,83,0.00,BKN,OVC,0.16,WeatherDisplay:10.37,2013-06-02 17:30:00,
2013-06-02 13:35:00,75.8,69.9,29.59,South,170,1.0,12.0,82,0.00,BKN,OVC,0.16,WeatherDisplay:10.37,2013-06-02 17:35:00,
2013-06-02 13:40:00,75.7,69.8,29.58,SE,145,2.0,12.0,82,0.00,BKN,OVC,0.16,WeatherDisplay:10.37,2013-06-02 17:40:00,
2013-06-02 13:45:00,76.7,69.7,29.59,SSE,167,2.0,9.0,79,0.00,BKN,OVC,0.16,WeatherDisplay:10.37,2013-06-02 17:45:00,
2013-06-02 13:50:00,77.5,70.4,29.59,SW,222,0.0,13.0,79,0.00,BKN,OVC,0.16,WeatherDisplay:10.37,2013-06-02 17:50:00,
2013-06-02 13:55:00,77.5,70.1,29.58,WSW,247,1.0,6.0,78,0.00,BKN,OVC,0.16,WeatherDisplay:10.37,2013-06-02 17:55:00,
2013-06-02 14:00:00,77.8,69.2,29.58,SW,234,2.0,9.0,75,0.00,BKN,OVC,0.16,WeatherDisplay:10.37,2013-06-02 18:00:00,
2013-06-02 14:10:00,76.5,68.8,29.58,SW,223,1.0,10.0,77,0.00,BKN,OVC,0.16,WeatherDisplay:10.37,2013-06-02 18:10:00,
2013-06-02 14:15:00,75.3,68.0,29.58,SSW,192,2.0,9.0,78,0.00,BKN,OVC,0.16,WeatherDisplay:10.37,2013-06-02 18:15:00,
2013-06-02 14:20:00,74.5,67.9,29.58,South,180,1.0,7.0,80,0.00,BKN,OVC,0.16,WeatherDisplay:10.37,2013-06-02 18:20:00,
2013-06-02 14:25:00,76.1,69.1,29.58,SSW,206,0.0,10.0,79,0.00,BKN,OVC,0.16,WeatherDisplay:10.37,2013-06-02 18:25:00,
2013-06-02 14:30:00,76.6,70.0,29.58,WSW,241,0.0,12.0,80,0.00,BKN,OVC,0.16,WeatherDisplay:10.37,2013-06-02 18:30:00,
2013-06-02 14:35:00,76.6,69.2,29.57,WSW,238,1.0,13.0,78,0.00,BKN,OVC,0.16,WeatherDisplay:10.37,2013-06-02 18:35:00,
2013-06-02 14:40:00,76.0,69.0,29.57,South,191,0.0,6.0,79,0.00,BKN,OVC,0.16,WeatherDisplay:10.37,2013-06-02 18:40:00,
2013-06-02 14:45:00,75.4,68.8,29.57,SSE,166,1.0,12.0,80,0.00,BKN,OVC,0.16,WeatherDisplay:10.37,2013-06-02 18:45:00,
2013-06-02 14:50:00,75.1,68.9,29.57,SSE,161,0.0,4.0,81,0.00,BKN,OVC,0.16,WeatherDisplay:10.37,2013-06-02 18:50:00,
2013-06-02 15:00:00,75.5,68.1,29.56,SSW,202,3.0,10.0,78,0.00,BKN,OVC,0.16,WeatherDisplay:10.37,2013-06-02 19:00:00,
2013-06-02 15:05:00,76.1,68.7,29.56,South,190,6.0,16.0,78,0.00,BKN,OVC,0.16,WeatherDisplay:10.37,2013-06-02 19:05:00,
2013-06-02 15:10:00,76.3,69.7,29.55,SSW,205,1.0,10.0,80,0.00,BKN,OVC,0.16,WeatherDisplay:10.37,2013-06-02 19:10:00,
2013-06-02 15:15:00,76.4,68.2,29.56,South,183,1.0,9.0,76,0.00,BKN,OVC,0.16,WeatherDisplay:10.37,2013-06-02 19:15:00,
2013-06-02 15:20:00,76.0,68.2,29.56,South,170,2.0,10.0,77,0.00,BKN,OVC,0.16,WeatherDisplay:10.37,2013-06-02 19:20:00,
2013-06-02 15:25:00,75.4,67.6,29.56,South,177,2.0,12.0,77,0.00,BKN,OVC,0.16,WeatherDisplay:10.37,2013-06-02 19:25:00,
2013-06-02 15:30:00,75.1,67.7,29.57,SSW,194,2.0,12.0,78,0.00,BKN,OVC,0.16,WeatherDisplay:10.37,2013-06-02 19:30:00,
2013-06-02 15:35:00,75.0,67.3,29.57,SSW,192,0.0,8.0,77,0.00,BKN,OVC,0.16,WeatherDisplay:10.37,2013-06-02 19:35:00,
2013-06-02 15:40:00,75.1,67.8,29.57,SE,133,5.0,13.0,78,0.00,BKN,OVC,0.16,WeatherDisplay:10.37,2013-06-02 19:40:00,
2013-06-02 15:45:00,74.9,67.5,29.57,South,185,3.0,12.0,78,0.00,BKN,OVC,0.16,WeatherDisplay:10.37,2013-06-02 19:45:00,
2013-06-02 15:50:00,74.5,67.6,29.57,SSW,196,1.0,5.0,79,0.00,BKN,OVC,0.16,WeatherDisplay:10.37,2013-06-02 19:50:00,
2013-06-02 15:55:00,74.5,67.6,29.57,SSW,207,2.0,7.0,79,0.00,BKN,OVC,0.16,WeatherDisplay:10.37,2013-06-02 19:55:00,
2013-06-02 16:00:00,74.8,67.1,29.57,SSW,199,2.0,14.0,77,0.00,BKN,OVC,0.16,WeatherDisplay:10.37,2013-06-02 20:00:00,
2013-06-02 16:05:00,75.0,67.3,29.57,South,190,2.0,12.0,77,0.00,BKN,OVC,0.16,WeatherDisplay:10.37,2013-06-02 20:05:00,
2013-06-02 16:10:00,75.0,66.9,29.56,SSW,207,1.0,8.0,76,0.00,BKN,OVC,0.16,WeatherDisplay:10.37,2013-06-02 20:10:00,
2013-06-02 16:15:00,74.7,67.0,29.56,SW,220,2.0,9.0,77,0.00,OVC,OVC,0.16,WeatherDisplay:10.37,2013-06-02 20:15:00,
2013-06-02 16:20:00,75.1,67.8,29.56,SW,215,1.0,8.0,78,0.00,OVC,OVC,0.16,WeatherDisplay:10.37,2013-06-02 20:20:00,
2013-06-02 16:25:00,75.4,67.7,29.56,SSW,199,1.0,7.0,77,0.00,OVC,OVC,0.16,WeatherDisplay:10.37,2013-06-02 20:25:00,
2013-06-02 16:30:00,75.1,67.8,29.56,South,180,1.0,7.0,78,0.00,OVC,OVC,0.16,WeatherDisplay:10.37,2013-06-02 20:30:00,
2013-06-02 16:35:00,75.0,67.7,29.55,South,188,0.0,9.0,78,0.00,OVC,OVC,0.16,WeatherDisplay:10.37,2013-06-02 20:35:00,
2013-06-02 16:40:00,74.8,66.7,29.55,SW,222,3.0,9.0,76,0.00,OVC,OVC,0.16,WeatherDisplay:10.37,2013-06-02 20:40:00,
2013-06-02 16:50:00,73.9,67.0,29.55,SW,223,1.0,7.0,79,0.00,OVC,OVC,0.16,WeatherDisplay:10.37,2013-06-02 20:50:00,
2013-06-02 16:55:00,73.9,67.0,29.55,SSW,212,1.0,3.0,79,0.00,OVC,OVC,0.16,WeatherDisplay:10.37,2013-06-02 20:55:00,
2013-06-02 17:00:00,74.9,67.2,29.54,WSW,239,2.0,14.0,77,0.00,OVC,OVC,0.16,WeatherDisplay:10.37,2013-06-02 21:00:00,
2013-06-02 17:05:00,75.9,67.8,29.54,South,187,1.0,9.0,76,0.00,OVC,OVC,0.16,WeatherDisplay:10.37,2013-06-02 21:05:00,
2013-06-02 17:10:00,75.4,66.9,29.54,South,172,2.0,15.0,75,0.00,OVC,OVC,0.16,WeatherDisplay:10.37,2013-06-02 21:10:00,
2013-06-02 17:15:00,74.9,66.8,29.54,SSE,166,1.0,8.0,76,0.00,OVC,OVC,0.16,WeatherDisplay:10.37,2013-06-02 21:15:00,
2013-06-02 17:20:00,75.5,67.0,29.53,South,185,2.0,8.0,75,0.00,OVC,OVC,0.16,WeatherDisplay:10.37,2013-06-02 21:20:00,
2013-06-02 17:25:00,75.3,66.8,29.53,SSE,165,1.0,7.0,75,0.00,OVC,OVC,0.16,WeatherDisplay:10.37,2013-06-02 21:25:00,
2013-06-02 17:30:00,75.9,66.6,29.53,South,170,3.0,9.0,73,0.00,OVC,OVC,0.16,WeatherDisplay:10.37,2013-06-02 21:30:00,
2013-06-02 17:35:00,75.8,66.9,29.54,South,180,5.0,12.0,74,0.00,OVC,OVC,0.16,WeatherDisplay:10.37,2013-06-02 21:35:00,
2013-06-02 17:40:00,75.7,66.8,29.54,South,186,2.0,8.0,74,0.00,OVC,OVC,0.16,WeatherDisplay:10.37,2013-06-02 21:40:00,
2013-06-02 17:45:00,75.2,66.7,29.53,SSW,193,1.0,15.0,75,0.00,OVC,OVC,0.16,WeatherDisplay:10.37,2013-06-02 21:45:00,
2013-06-02 17:50:00,74.8,65.6,29.54,SSW,193,1.0,6.0,73,0.00,OVC,OVC,0.16,WeatherDisplay:10.37,2013-06-02 21:50:00,
2013-06-02 17:55:00,74.1,66.0,29.55,South,189,1.0,7.0,76,0.00,OVC,OVC,0.16,WeatherDisplay:10.37,2013-06-02 21:55:00,
2013-06-02 18:00:00,73.6,65.9,29.55,SSW,201,0.0,14.0,77,0.00,OVC,OVC,0.16,WeatherDisplay:10.37,2013-06-02 22:00:00,
2013-06-02 18:05:00,73.2,65.1,29.55,SSW,203,5.0,12.0,76,0.00,OVC,OVC,0.16,WeatherDisplay:10.37,2013-06-02 22:05:00,
2013-06-02 18:10:00,72.8,65.6,29.55,SSE,157,0.0,4.0,78,0.00,OVC,OVC,0.16,WeatherDisplay:10.37,2013-06-02 22:10:00,
2013-06-02 18:15:00,72.3,66.2,29.57,WSW,242,6.0,13.0,81,0.01,RA,OVC,0.17,WeatherDisplay:10.37,2013-06-02 22:15:00,
2013-06-02 18:20:00,69.3,64.2,29.57,WSW,245,3.0,12.0,84,0.02,RA,OVC,0.18,WeatherDisplay:10.37,2013-06-02 22:20:00,
2013-06-02 18:25:00,67.4,64.1,29.57,West,261,1.0,8.0,89,0.02,RA,OVC,0.20,WeatherDisplay:10.37,2013-06-02 22:25:00,
2013-06-02 18:30:00,66.4,63.4,29.56,West,279,1.0,9.0,90,0.02,RA,OVC,0.23,WeatherDisplay:10.37,2013-06-02 22:30:00,
2013-06-02 18:35:00,65.9,63.5,29.57,WSW,258,1.0,6.0,92,0.02,RA,OVC,0.24,WeatherDisplay:10.37,2013-06-02 22:35:00,
2013-06-02 18:40:00,66.2,64.1,29.57,WSW,256,1.0,5.0,93,0.02,RA,OVC,0.26,WeatherDisplay:10.37,2013-06-02 22:40:00,
2013-06-02 18:45:00,66.7,64.6,29.57,WSW,252,2.0,5.0,93,0.01,RA,OVC,0.27,WeatherDisplay:10.37,2013-06-02 22:45:00,
2013-06-02 18:50:00,66.8,64.4,29.57,WSW,246,1.0,6.0,92,0.01,RA,OVC,0.28,WeatherDisplay:10.37,2013-06-02 22:50:00,
2013-06-02 18:55:00,66.8,64.4,29.57,West,262,0.0,5.0,92,0.01,RA,OVC,0.28,WeatherDisplay:10.37,2013-06-02 22:55:00,
2013-06-02 19:00:00,67.1,65.0,29.57,West,273,0.0,3.0,93,0.00,RA,OVC,0.28,WeatherDisplay:10.37,2013-06-02 23:00:00,
2013-06-02 19:05:00,67.3,65.2,29.57,WSW,246,0.0,5.0,93,0.00,BKN,OVC,0.28,WeatherDisplay:10.37,2013-06-02 23:05:00,
2013-06-02 19:10:00,67.3,64.9,29.57,SW,235,1.0,5.0,92,0.00,BKN,OVC,0.28,WeatherDisplay:10.37,2013-06-02 23:10:00,
2013-06-02 19:15:00,67.4,65.0,29.57,West,279,0.0,6.0,92,0.00,BKN,OVC,0.28,WeatherDisplay:10.37,2013-06-02 23:15:00,
2013-06-02 19:20:00,67.3,64.6,29.57,West,278,1.0,6.0,91,0.00,BKN,OVC,0.28,WeatherDisplay:10.37,2013-06-02 23:20:00,
2013-06-02 19:25:00,67.1,64.7,29.57,West,266,0.0,3.0,92,0.00,BKN,OVC,0.28,WeatherDisplay:10.37,2013-06-02 23:25:00,
2013-06-02 19:30:00,66.9,64.8,29.57,West,263,0.0,1.0,93,0.00,BKN,OVC,0.28,WeatherDisplay:10.37,2013-06-02 23:30:00,
2013-06-02 19:35:00,66.7,64.6,29.57,SW,216,1.0,7.0,93,0.00,BKN,OVC,0.28,WeatherDisplay:10.37,2013-06-02 23:35:00,
2013-06-02 19:40:00,67.0,64.6,29.57,SW,225,1.0,7.0,92,0.00,BKN,OVC,0.28,WeatherDisplay:10.37,2013-06-02 23:40:00,
2013-06-02 19:45:00,67.5,64.8,29.57,WSW,250,0.0,10.0,91,0.00,OVC,OVC,0.28,WeatherDisplay:10.37,2013-06-02 23:45:00,
2013-06-02 19:50:00,67.6,64.9,29.58,West,266,0.0,6.0,91,0.00,OVC,OVC,0.28,WeatherDisplay:10.37,2013-06-02 23:50:00,
2013-06-02 19:55:00,67.5,65.1,29.58,SW,231,0.0,5.0,92,0.00,OVC,OVC,0.28,WeatherDisplay:10.37,2013-06-02 23:55:00,
2013-06-02 20:00:00,67.3,64.9,29.57,SW,227,0.0,4.0,92,0.00,OVC,OVC,0.28,WeatherDisplay:10.37,2013-06-03 00:00:00,
2013-06-02 20:05:00,67.0,64.9,29.58,SW,226,0.0,5.0,93,0.00,OVC,OVC,0.28,WeatherDisplay:10.37,2013-06-03 00:05:00,
2013-06-02 20:10:00,66.8,64.7,29.58,SW,231,0.0,3.0,93,0.00,OVC,OVC,0.28,WeatherDisplay:10.37,2013-06-03 00:10:00,
2013-06-02 20:15:00,66.5,64.5,29.58,SSW,203,0.0,0.0,93,0.00,BKN,OVC,0.28,WeatherDisplay:10.37,2013-06-03 00:15:00,
2013-06-02 20:20:00,66.2,64.1,29.57,SSW,204,0.0,3.0,93,0.00,BKN,OVC,0.28,WeatherDisplay:10.37,2013-06-03 00:20:00,
2013-06-02 20:25:00,65.9,64.1,29.58,SSW,213,0.0,1.0,94,0.00,BKN,OVC,0.28,WeatherDisplay:10.37,2013-06-03 00:25:00,
2013-06-02 20:30:00,65.7,63.9,29.58,SSW,208,0.0,0.0,94,0.00,BKN,OVC,0.28,WeatherDisplay:10.37,2013-06-03 00:30:00,
2013-06-02 20:35:00,65.5,64.0,29.58,SSW,212,0.0,0.0,95,0.00,BKN,OVC,0.28,WeatherDisplay:10.37,2013-06-03 00:35:00,
2013-06-02 20:40:00,65.5,64.0,29.58,SW,226,0.0,1.0,95,0.00,BKN,OVC,0.28,WeatherDisplay:10.37,2013-06-03 00:40:00,
2013-06-02 20:45:00,65.5,64.0,29.58,WSW,240,0.0,0.0,95,0.00,BKN,OVC,0.28,WeatherDisplay:10.37,2013-06-03 00:45:00,
2013-06-02 20:50:00,65.4,63.9,29.58,WSW,240,0.0,0.0,95,0.00,BKN,OVC,0.28,WeatherDisplay:10.37,2013-06-03 00:50:00,
2013-06-02 20:55:00,65.3,63.8,29.59,WSW,239,0.0,0.0,95,0.00,BKN,OVC,0.28,WeatherDisplay:10.37,2013-06-03 00:55:00,
2013-06-02 21:00:00,65.2,63.7,29.59,SW,230,0.0,0.0,95,0.00,BKN,OVC,0.28,WeatherDisplay:10.37,2013-06-03 01:00:00,
2013-06-02 21:05:00,65.0,63.5,29.59,SW,224,0.0,0.0,95,0.00,BKN,OVC,0.28,WeatherDisplay:10.37,2013-06-03 01:05:00,
2013-06-02 21:10:00,64.9,63.4,29.59,SW,224,0.0,0.0,95,0.00,BKN,OVC,0.28,WeatherDisplay:10.37,2013-06-03 01:10:00,
2013-06-02 21:15:00,65.0,63.8,29.60,SW,217,0.0,0.0,96,0.00,BKN,OVC,0.28,WeatherDisplay:10.37,2013-06-03 01:15:00,
2013-06-02 21:20:00,65.1,63.9,29.60,SW,231,0.0,4.0,96,0.00,BKN,OVC,0.28,WeatherDisplay:10.37,2013-06-03 01:20:00,
2013-06-02 21:25:00,65.2,64.0,29.61,SW,234,0.0,7.0,96,0.01,RA,OVC,0.29,WeatherDisplay:10.37,2013-06-03 01:25:00,
2013-06-02 21:30:00,65.1,63.6,29.61,SW,236,0.0,9.0,95,0.01,RA,OVC,0.30,WeatherDisplay:10.37,2013-06-03 01:30:00,
2013-06-02 21:35:00,65.0,63.9,29.61,WSW,244,2.0,8.0,96,0.01,RA,OVC,0.31,WeatherDisplay:10.37,2013-06-03 01:35:00,
2013-06-02 21:40:00,64.9,63.4,29.61,SW,225,1.0,3.0,95,0.01,RA,OVC,0.31,WeatherDisplay:10.37,2013-06-03 01:40:00,
2013-06-02 21:45:00,64.8,63.3,29.61,SW,235,0.0,5.0,95,0.00,RA,OVC,0.31,WeatherDisplay:10.37,2013-06-03 01:45:00,
2013-06-02 21:50:00,64.6,63.1,29.61,WSW,241,1.0,4.0,95,0.01,RA,OVC,0.32,WeatherDisplay:10.37,2013-06-03 01:50:00,
2013-06-02 21:55:00,64.3,62.8,29.62,SW,229,0.0,2.0,95,0.00,RA,OVC,0.32,WeatherDisplay:10.37,2013-06-03 01:55:00,
2013-06-02 22:00:00,64.0,62.5,29.62,SW,215,0.0,4.0,95,0.00,BKN,OVC,0.32,WeatherDisplay:10.37,2013-06-03 02:00:00,
2013-06-02 22:10:00,63.5,62.4,29.62,WSW,246,0.0,1.0,96,0.00,RA,OVC,0.33,WeatherDisplay:10.37,2013-06-03 02:10:00,
2013-06-02 22:15:00,63.4,61.9,29.62,WNW,296,0.0,0.0,95,0.00,SCT,OVC,0.33,WeatherDisplay:10.37,2013-06-03 02:15:00,
2013-06-02 22:25:00,63.4,62.2,29.62,WSW,251,1.0,5.0,96,0.00,RA,OVC,0.34,WeatherDisplay:10.37,2013-06-03 02:25:00,
2013-06-02 22:30:00,63.4,62.2,29.63,WSW,256,0.0,5.0,96,0.00,SCT,OVC,0.34,WeatherDisplay:10.37,2013-06-03 02:30:00,
2013-06-02 22:35:00,63.3,62.1,29.63,WSW,251,0.0,4.0,96,0.00,SCT,OVC,0.34,WeatherDisplay:10.37,2013-06-03 02:35:00,
2013-06-02 22:40:00,63.1,61.9,29.63,WSW,240,0.0,2.0,96,0.00,SCT,OVC,0.34,WeatherDisplay:10.37,2013-06-03 02:40:00,
2013-06-02 22:45:00,62.9,61.8,29.64,WSW,237,0.0,1.0,96,0.00,SCT,OVC,0.34,WeatherDisplay:10.37,2013-06-03 02:45:00,
2013-06-02 22:50:00,62.7,61.3,29.64,SW,236,0.0,0.0,95,0.00,SCT,OVC,0.34,WeatherDisplay:10.37,2013-06-03 02:50:00,
2013-06-02 22:55:00,62.6,61.4,29.64,SW,234,0.0,1.0,96,0.00,SCT,OVC,0.34,WeatherDisplay:10.37,2013-06-03 02:55:00,
2013-06-02 23:00:00,62.4,61.2,29.64,SW,225,0.0,2.0,96,0.00,SCT,OVC,0.34,WeatherDisplay:10.37,2013-06-03 03:00:00,
2013-06-02 23:05:00,62.2,61.0,29.64,SW,220,0.0,0.0,96,0.00,SCT,OVC,0.34,WeatherDisplay:10.37,2013-06-03 03:05:00,
2013-06-02 23:10:00,62.0,60.9,29.65,SW,220,0.0,1.0,96,0.00,SCT,OVC,0.34,WeatherDisplay:10.37,2013-06-03 03:10:00,
2013-06-02 23:15:00,61.9,60.7,29.65,SW,232,0.0,0.0,96,0.00,BKN,OVC,0.34,WeatherDisplay:10.37,2013-06-03 03:15:00,
2013-06-02 23:20:00,61.7,60.6,29.65,WSW,238,0.0,0.0,96,0.00,BKN,OVC,0.34,WeatherDisplay:10.37,2013-06-03 03:20:00,
2013-06-02 23:25:00,61.6,60.4,29.65,WSW,238,0.0,0.0,96,0.00,BKN,OVC,0.34,WeatherDisplay:10.37,2013-06-03 03:25:00,
2013-06-02 23:30:00,61.4,60.2,29.66,SW,231,0.0,0.0,96,0.00,BKN,OVC,0.34,WeatherDisplay:10.37,2013-06-03 03:30:00,
2013-06-02 23:35:00,61.2,60.1,29.66,SW,224,0.0,0.0,96,0.00,BKN,OVC,0.34,WeatherDisplay:10.37,2013-06-03 03:35:00,
2013-06-02 23:40:00,61.0,59.9,29.66,WSW,246,0.0,1.0,96,0.00,BKN,OVC,0.34,WeatherDisplay:10.37,2013-06-03 03:40:00,
2013-06-02 23:45:00,61.0,59.9,29.66,WSW,254,0.0,1.0,96,0.00,BKN,OVC,0.34,WeatherDisplay:10.37,2013-06-03 03:45:00,
2013-06-02 23:55:00,60.9,59.8,29.66,WSW,258,0.0,3.0,96,0.00,BKN,OVC,0.34,WeatherDisplay:10.37,2013-06-03 03:55:00,